createdAt,value
2022-08-09T00:00:04.774Z,19.89
2022-08-09T00:02:34.246Z,19.86
2022-08-09T00:06:15.620Z,19.80
2022-08-09T00:07:49.806Z,19.76
2022-08-09T00:10:29.347Z,19.64
2022-08-09T00:12:59.295Z,19.59
2022-08-09T00:15:57.405Z,19.52
2022-08-09T00:19:34.056Z,19.49
2022-08-09T00:22:04.480Z,19.46
2022-08-09T00:24:32.182Z,19.47
2022-08-09T00:27:00.420Z,19.43
2022-08-09T00:30:16.520Z,19.40
2022-08-09T00:32:25.222Z,19.31
2022-08-09T00:34:54.164Z,19.25
2022-08-09T00:37:20.921Z,19.17
2022-08-09T00:40:12.993Z,19.14
2022-08-09T00:44:14.816Z,19.06
2022-08-09T00:45:27.869Z,19.08
2022-08-09T00:48:00.428Z,19.11
2022-08-09T00:50:41.697Z,19.01
2022-08-09T00:53:12.338Z,18.83
2022-08-09T00:56:05.741Z,18.73
2022-08-09T00:58:27.854Z,18.72
2022-08-09T01:00:59.228Z,18.72
2022-08-09T01:03:46.652Z,18.62
2022-08-09T01:06:53.554Z,18.50
2022-08-09T01:09:36.551Z,18.35
2022-08-09T01:12:40.191Z,18.25
2022-08-09T01:15:17.796Z,18.29
2022-08-09T01:17:57.762Z,18.30
2022-08-09T01:20:41.135Z,18.27
2022-08-09T01:24:02.591Z,18.14
2022-08-09T01:26:53.694Z,18.10
2022-08-09T01:29:55.515Z,18.05
2022-08-09T01:32:34.266Z,18.03
2022-08-09T01:35:38.507Z,18.01
2022-08-09T01:38:15.421Z,17.92
2022-08-09T01:40:52.960Z,17.93
2022-08-09T01:43:42.166Z,17.95
2022-08-09T01:46:24.591Z,17.95
2022-08-09T01:49:00.292Z,17.91
2022-08-09T01:51:44.477Z,17.84
2022-08-09T01:54:24.016Z,17.78
2022-08-09T01:56:52.684Z,17.74
2022-08-09T01:59:21.508Z,17.79
2022-08-09T02:01:59.259Z,17.76
2022-08-09T02:04:30.157Z,17.72
2022-08-09T02:08:36.003Z,17.71
2022-08-09T02:10:11.173Z,17.76
2022-08-09T02:12:39.302Z,17.71
2022-08-09T02:15:08.375Z,17.64
2022-08-09T02:18:00.095Z,17.61
2022-08-09T02:20:34.445Z,17.60
2022-08-09T02:23:13.269Z,17.61
2022-08-09T02:25:52.717Z,17.54
2022-08-09T02:28:34.756Z,17.55
2022-08-09T02:31:07.566Z,17.50
2022-08-09T02:34:06.395Z,17.44
2022-08-09T02:36:37.523Z,17.32
2022-08-09T02:39:39.769Z,17.30
2022-08-09T02:42:08.935Z,17.24
2022-08-09T02:44:47.225Z,17.28
2022-08-09T02:47:16.646Z,17.22
2022-08-09T02:49:57.079Z,17.16
2022-08-09T02:52:55.134Z,17.09
2022-08-09T02:55:46.154Z,17.12
2022-08-09T02:58:32.277Z,17.22
2022-08-09T03:01:07.782Z,17.16
2022-08-09T03:04:16.553Z,17.06
2022-08-09T03:06:27.526Z,16.89
2022-08-09T03:08:56.485Z,16.81
2022-08-09T03:12:09.727Z,16.81
2022-08-09T03:14:19.562Z,16.85
2022-08-09T03:16:51.754Z,16.84
2022-08-09T03:19:57.966Z,16.79
2022-08-09T03:22:12.383Z,16.74
2022-08-09T03:25:05.665Z,16.59
2022-08-09T03:27:44.990Z,16.59
2022-08-09T03:30:14.161Z,16.59
2022-08-09T03:33:12.923Z,16.46
2022-08-09T03:36:15.757Z,16.45
2022-08-09T03:38:31.814Z,16.50
2022-08-09T03:41:09.126Z,16.46
2022-08-09T03:43:36.461Z,16.46
2022-08-09T03:46:27.145Z,16.48
2022-08-09T03:48:57.567Z,16.56
2022-08-09T03:51:55.371Z,16.56
2022-08-09T03:54:16.081Z,16.46
2022-08-09T03:56:46.618Z,16.41
2022-08-09T03:59:21.136Z,16.39
2022-08-09T04:01:59.241Z,16.39
2022-08-09T04:04:32.510Z,16.33
2022-08-09T04:07:04.343Z,16.31
2022-08-09T04:09:49.001Z,16.31
2022-08-09T04:12:44.667Z,16.26
2022-08-09T04:15:29.703Z,16.35
2022-08-09T04:17:58.840Z,16.41
2022-08-09T04:20:27.933Z,16.33
2022-08-09T04:22:55.613Z,16.26
2022-08-09T04:25:31.614Z,16.22
2022-08-09T04:28:03.905Z,16.26
2022-08-09T04:30:36.038Z,16.36
2022-08-09T04:33:09.731Z,16.35
2022-08-09T04:35:42.371Z,16.42
2022-08-09T04:38:11.482Z,16.50
2022-08-09T04:40:54.231Z,16.46
2022-08-09T04:43:28.188Z,16.48
2022-08-09T04:46:01.404Z,16.47
2022-08-09T04:48:33.502Z,16.50
2022-08-09T04:51:00.717Z,16.44
2022-08-09T04:53:29.313Z,16.43
2022-08-09T04:56:06.709Z,16.48
2022-08-09T04:58:36.041Z,16.43
2022-08-09T05:01:16.490Z,16.43
2022-08-09T05:03:45.479Z,16.39
2022-08-09T05:06:21.778Z,16.43
2022-08-09T05:08:59.943Z,16.47
2022-08-09T05:11:32.432Z,16.54
2022-08-09T05:14:06.045Z,16.54
2022-08-09T05:16:58.215Z,16.58
2022-08-09T05:19:26.133Z,16.57
2022-08-09T05:21:58.936Z,16.61
2022-08-09T05:24:26.782Z,16.66
2022-08-09T05:26:54.454Z,16.65
2022-08-09T05:29:22.814Z,16.71
2022-08-09T05:31:57.114Z,16.77
2022-08-09T05:34:30.641Z,16.76
2022-08-09T05:37:06.170Z,16.80
2022-08-09T05:39:43.289Z,16.91
2022-08-09T05:42:17.900Z,16.96
2022-08-09T05:44:53.067Z,17.02
2022-08-09T05:47:22.614Z,17.10
2022-08-09T05:50:24.136Z,17.12
2022-08-09T05:52:38.811Z,17.16
2022-08-09T05:55:08.856Z,17.25
2022-08-09T05:57:55.525Z,17.35
2022-08-09T06:00:23.781Z,17.44
2022-08-09T06:02:54.538Z,17.48
2022-08-09T06:05:50.457Z,17.68
2022-08-09T06:08:10.997Z,17.81
2022-08-09T06:10:39.868Z,17.78
2022-08-09T06:13:20.280Z,17.87
2022-08-09T06:15:51.771Z,17.94
2022-08-09T06:18:23.711Z,18.02
2022-08-09T06:20:54.896Z,18.13
2022-08-09T06:23:58.299Z,18.25
2022-08-09T06:26:20.149Z,18.38
2022-08-09T06:29:00.352Z,18.45
2022-08-09T06:31:39.680Z,18.63
2022-08-09T06:34:18.787Z,18.76
2022-08-09T06:36:47.655Z,18.84
2022-08-09T06:39:15.640Z,19.00
2022-08-09T06:42:11.156Z,19.10
2022-08-09T06:44:28.693Z,19.19
2022-08-09T06:46:55.752Z,19.28
2022-08-09T06:49:44.651Z,19.40
2022-08-09T06:52:10.811Z,19.57
2022-08-09T06:54:41.873Z,19.70
2022-08-09T06:57:08.463Z,19.88
2022-08-09T07:00:56.943Z,20.02
2022-08-09T07:02:21.676Z,20.14
2022-08-09T07:04:58.263Z,20.32
2022-08-09T07:07:59.014Z,20.47
2022-08-09T07:10:29.338Z,20.60
2022-08-09T07:12:59.237Z,20.82
2022-08-09T07:16:38.787Z,20.95
2022-08-09T07:18:14.360Z,21.16
2022-08-09T07:20:43.793Z,21.36
2022-08-09T07:23:18.314Z,21.58
2022-08-09T07:25:46.046Z,21.82
2022-08-09T07:28:19.314Z,22.12
2022-08-09T07:30:54.051Z,22.31
2022-08-09T07:33:24.532Z,22.45
2022-08-09T07:35:54.690Z,22.68
2022-08-09T07:38:23.113Z,23.07
2022-08-09T07:41:10.132Z,23.32
2022-08-09T07:43:41.407Z,23.56
2022-08-09T07:46:22.299Z,23.77
2022-08-09T07:48:58.980Z,24.03
2022-08-09T07:52:05.050Z,24.28
2022-08-09T07:54:14.380Z,24.51
2022-08-09T07:56:48.709Z,24.64
2022-08-09T07:59:25.285Z,24.78
2022-08-09T08:02:02.489Z,25.05
2022-08-09T08:04:31.723Z,25.17
2022-08-09T08:07:57.390Z,25.28
2022-08-09T08:09:53.555Z,25.36
2022-08-09T08:12:36.629Z,25.55
2022-08-09T08:15:04.527Z,25.58
2022-08-09T08:17:35.363Z,25.63
2022-08-09T08:20:19.553Z,25.68
2022-08-09T08:22:56.229Z,25.69
2022-08-09T08:25:43.968Z,25.93
2022-08-09T08:28:14.324Z,26.23
2022-08-09T08:30:46.743Z,26.46
2022-08-09T08:33:23.953Z,26.61
2022-08-09T08:35:59.764Z,26.74
2022-08-09T08:38:31.089Z,26.76
2022-08-09T08:40:58.543Z,26.67
2022-08-09T08:43:27.082Z,26.62
2022-08-09T08:46:32.015Z,26.68
2022-08-09T08:48:53.584Z,26.82
2022-08-09T08:51:23.614Z,27.18
2022-08-09T08:54:04.127Z,27.22
2022-08-09T08:56:42.233Z,27.14
2022-08-09T08:59:19.054Z,27.28
2022-08-09T09:01:57.478Z,27.28
2022-08-09T09:04:41.211Z,27.24
2022-08-09T09:07:15.972Z,27.43
2022-08-09T09:10:01.489Z,27.47
2022-08-09T09:12:35.610Z,27.88
2022-08-09T09:15:07.097Z,27.78
2022-08-09T09:17:49.430Z,27.96
2022-08-09T09:20:20.613Z,27.95
2022-08-09T09:23:01.657Z,27.95
2022-08-09T09:26:04.911Z,27.79
2022-08-09T09:29:01.669Z,28.23
2022-08-09T09:32:03.974Z,28.53
2022-08-09T09:34:14.543Z,28.40
2022-08-09T09:36:46.638Z,28.50
2022-08-09T09:39:19.997Z,28.52
2022-08-09T09:41:49.781Z,28.25
2022-08-09T09:44:31.573Z,27.96
2022-08-09T09:47:11.418Z,27.78
2022-08-09T09:50:13.921Z,28.02
2022-08-09T09:52:36.806Z,28.03
2022-08-09T09:55:27.851Z,28.43
2022-08-09T09:58:18.003Z,28.22
2022-08-09T10:00:59.019Z,28.18
2022-08-09T10:03:44.768Z,28.25
2022-08-09T10:06:24.076Z,28.25
2022-08-09T10:08:55.201Z,28.40
2022-08-09T10:12:00.242Z,28.32
2022-08-09T10:14:31.040Z,28.58
2022-08-09T10:17:23.871Z,28.70
2022-08-09T10:19:57.214Z,28.67
2022-08-09T10:22:35.605Z,28.66
2022-08-09T10:25:11.312Z,28.86
2022-08-09T10:27:45.314Z,29.42
2022-08-09T10:34:04.295Z,29.73
2022-08-09T10:36:01.190Z,29.80
2022-08-09T10:38:39.652Z,30.06
2022-08-09T10:41:17.855Z,29.53
2022-08-09T10:43:58.679Z,29.52
2022-08-09T10:46:54.993Z,29.58
2022-08-09T10:49:50.117Z,29.72
2022-08-09T10:52:33.785Z,29.56
2022-08-09T10:55:35.654Z,29.48
2022-08-09T10:58:37.326Z,29.46
2022-08-09T11:03:10.678Z,29.66
2022-08-09T11:04:19.714Z,29.89
2022-08-09T11:07:00.122Z,29.91
2022-08-09T11:09:41.367Z,30.03
2022-08-09T11:12:20.128Z,30.08
2022-08-09T11:14:51.253Z,30.05
2022-08-09T11:17:19.456Z,30.25
2022-08-09T11:20:22.189Z,30.34
2022-08-09T11:22:55.548Z,30.32
2022-08-09T11:25:45.100Z,30.42
2022-08-09T11:28:56.432Z,30.53
2022-08-09T11:31:43.570Z,30.72
2022-08-09T11:34:23.331Z,30.54
2022-08-09T11:36:51.655Z,30.36
2022-08-09T11:39:18.430Z,30.46
2022-08-09T11:41:46.831Z,30.60
2022-08-09T11:44:15.567Z,30.58
2022-08-09T11:46:58.075Z,30.19
2022-08-09T11:50:55.503Z,30.39
2022-08-09T11:53:58.622Z,30.39
2022-08-09T11:55:52.155Z,30.48
2022-08-09T11:58:32.330Z,30.52
2022-08-09T12:01:15.486Z,30.34
2022-08-09T12:04:03.194Z,30.37
2022-08-09T12:06:35.340Z,30.49
2022-08-09T12:09:19.745Z,30.44
2022-08-09T12:12:05.795Z,30.40
2022-08-09T12:14:59.043Z,30.37
2022-08-09T12:17:34.440Z,30.74
2022-08-09T12:20:16.367Z,30.95
2022-08-09T12:22:47.572Z,31.09
2022-08-09T12:25:35.875Z,31.15
2022-08-09T12:29:11.408Z,31.03
2022-08-09T12:31:58.896Z,31.26
2022-08-09T12:34:13.528Z,31.59
2022-08-09T12:36:59.187Z,31.19
2022-08-09T12:39:42.658Z,31.03
2022-08-09T12:42:11.300Z,31.15
2022-08-09T12:44:52.376Z,30.84
2022-08-09T12:47:26.013Z,31.17
2022-08-09T12:50:11.552Z,31.43
2022-08-09T12:52:58.451Z,31.50
2022-08-09T12:56:15.560Z,31.55
2022-08-09T12:58:27.271Z,31.25
2022-08-09T13:00:54.957Z,31.12
2022-08-09T13:03:58.367Z,31.07
2022-08-09T13:06:34.725Z,31.62
2022-08-09T13:09:06.611Z,31.64
2022-08-09T13:11:39.180Z,31.49
2022-08-09T13:14:40.806Z,31.38
2022-08-09T13:17:03.860Z,31.55
2022-08-09T13:20:09.414Z,31.22
2022-08-09T13:22:36.417Z,31.24
2022-08-09T13:25:21.497Z,31.44
2022-08-09T13:27:56.039Z,31.29
2022-08-09T13:30:49.123Z,31.47
2022-08-09T13:33:51.698Z,31.51
2022-08-09T13:36:39.506Z,31.47
2022-08-09T13:39:02.222Z,31.89
2022-08-09T13:41:57.233Z,32.42
2022-08-09T13:44:28.490Z,32.40
2022-08-09T13:47:27.674Z,32.03
2022-08-09T13:49:55.979Z,32.19
2022-08-09T13:52:23.590Z,32.45
2022-08-09T13:54:59.879Z,32.12
2022-08-09T13:57:36.595Z,32.12
2022-08-09T14:00:13.121Z,31.97
2022-08-09T14:03:04.012Z,32.12
2022-08-09T14:05:56.990Z,32.05
2022-08-09T14:08:24.525Z,32.04
2022-08-09T14:10:59.667Z,31.91
2022-08-09T14:14:23.195Z,31.79
2022-08-09T14:16:28.183Z,32.01
2022-08-09T14:22:10.344Z,32.29
2022-08-09T14:24:46.864Z,32.31
2022-08-09T14:27:20.905Z,32.15
2022-08-09T14:30:34.250Z,32.33
2022-08-09T14:32:37.751Z,32.39
2022-08-09T14:35:08.482Z,32.32
2022-08-09T14:38:02.342Z,32.21
2022-08-09T14:44:48.619Z,31.46
2022-08-09T14:48:04.616Z,31.05
2022-08-09T14:53:52.572Z,30.97
2022-08-09T15:03:41.141Z,30.62
2022-08-09T15:10:07.655Z,31.44
2022-08-09T15:12:38.198Z,32.01
2022-08-09T15:15:08.580Z,32.31
2022-08-09T15:17:42.510Z,32.16
2022-08-09T15:20:15.289Z,32.09
2022-08-09T15:24:02.711Z,31.87
2022-08-09T15:25:53.739Z,31.45
2022-08-09T15:28:27.727Z,31.30
2022-08-09T15:31:10.065Z,32.05
2022-08-09T15:34:18.305Z,34.62
2022-08-09T15:36:30.688Z,36.36
2022-08-09T15:39:01.425Z,38.19
2022-08-09T15:41:50.405Z,39.91
2022-08-09T15:44:42.582Z,39.98
2022-08-09T15:47:22.626Z,40.36
2022-08-09T15:50:09.223Z,40.05
2022-08-09T15:53:06.316Z,40.67
2022-08-09T15:56:21.083Z,40.62
2022-08-09T15:58:44.986Z,37.38
2022-08-09T16:01:13.651Z,34.91
2022-08-09T16:06:44.695Z,34.47
2022-08-09T16:09:32.336Z,35.70
2022-08-09T16:12:13.160Z,36.06
2022-08-09T16:14:56.055Z,36.96
2022-08-09T16:17:44.398Z,36.79
2022-08-09T16:20:17.235Z,35.08
2022-08-09T16:22:48.862Z,33.88
2022-08-09T16:25:18.356Z,32.98
2022-08-09T16:28:04.846Z,32.19
2022-08-09T16:30:33.346Z,31.75
2022-08-09T16:33:08.762Z,31.30
2022-08-09T16:35:57.216Z,31.01
2022-08-09T16:38:23.640Z,30.66
2022-08-09T16:40:52.219Z,30.62
2022-08-09T16:43:19.062Z,30.51
2022-08-09T16:45:48.262Z,30.32
2022-08-09T16:48:50.573Z,30.21
2022-08-09T16:51:15.353Z,30.08
2022-08-09T16:54:09.098Z,29.94
2022-08-09T16:56:31.976Z,29.71
2022-08-09T16:59:01.054Z,29.55
2022-08-09T17:01:34.033Z,29.36
2022-08-09T17:04:02.226Z,29.40
2022-08-09T17:06:33.324Z,29.36
2022-08-09T17:09:17.801Z,29.22
2022-08-09T17:11:54.294Z,29.07
2022-08-09T17:14:27.035Z,28.97
2022-08-09T17:17:03.566Z,28.80
2022-08-09T17:20:05.031Z,28.77
2022-08-09T17:22:31.209Z,28.65
2022-08-09T17:25:02.781Z,28.58
2022-08-09T17:27:38.319Z,28.46
2022-08-09T17:30:12.664Z,28.27
2022-08-09T17:32:40.091Z,28.12
2022-08-09T17:35:13.158Z,28.04
2022-08-09T17:38:11.634Z,27.90
2022-08-09T17:40:30.069Z,27.76
2022-08-09T17:42:59.845Z,27.70
2022-08-09T17:46:02.070Z,27.63
2022-08-09T17:48:29.210Z,27.51
2022-08-09T17:51:08.696Z,27.37
2022-08-09T17:53:43.340Z,27.39
2022-08-09T17:56:14.862Z,27.38
2022-08-09T17:58:45.515Z,27.35
2022-08-09T18:01:22.173Z,27.31
2022-08-09T18:03:50.295Z,27.23
2022-08-09T18:06:31.006Z,27.12
2022-08-09T18:09:01.676Z,27.08
2022-08-09T18:11:32.289Z,26.94
2022-08-09T18:14:20.747Z,26.90
2022-08-09T18:16:48.764Z,26.82
2022-08-09T18:20:54.577Z,26.75
2022-08-09T18:22:18.664Z,26.72
2022-08-09T18:24:46.841Z,26.65
2022-08-09T18:27:18.766Z,26.61
2022-08-09T18:30:40.346Z,26.56
2022-08-09T18:32:58.201Z,26.46
2022-08-09T18:35:58.483Z,26.37
2022-08-09T18:38:15.685Z,26.26
2022-08-09T18:40:45.370Z,26.15
2022-08-09T18:43:12.941Z,26.09
2022-08-09T18:46:49.151Z,25.99
2022-08-09T18:48:36.028Z,25.89
2022-08-09T18:51:05.770Z,25.81
2022-08-09T18:53:56.619Z,25.66
2022-08-09T18:56:27.101Z,25.61
2022-08-09T18:59:04.062Z,25.53
2022-08-09T19:01:43.136Z,25.43
2022-08-09T19:04:24.906Z,25.30
2022-08-09T19:07:02.591Z,25.27
2022-08-09T19:10:16.681Z,25.17
2022-08-09T19:12:30.673Z,25.13
2022-08-09T19:14:57.908Z,25.09
2022-08-09T19:17:31.289Z,24.97
2022-08-09T19:20:02.370Z,24.97
2022-08-09T19:22:32.876Z,24.89
2022-08-09T19:25:11.855Z,24.89
2022-08-09T19:28:02.145Z,24.79
2022-08-09T19:30:29.492Z,24.74
2022-08-09T19:32:59.960Z,24.63
2022-08-09T19:35:56.835Z,24.62
2022-08-09T19:38:21.445Z,24.56
2022-08-09T19:40:49.940Z,24.46
2022-08-09T19:44:02.272Z,24.35
2022-08-09T19:46:34.019Z,24.15
2022-08-09T19:50:09.443Z,24.10
2022-08-09T19:52:03.091Z,24.02
2022-08-09T19:54:30.328Z,23.86
2022-08-09T19:57:01.510Z,23.87
2022-08-09T19:59:58.965Z,23.90
2022-08-09T20:04:07.249Z,23.85
2022-08-09T20:05:25.459Z,23.81
2022-08-09T20:07:58.557Z,23.77
2022-08-09T20:10:36.437Z,23.77
2022-08-09T20:13:10.774Z,23.74
2022-08-09T20:16:35.050Z,23.66
2022-08-09T20:18:36.879Z,23.63
2022-08-09T20:21:08.507Z,23.53
2022-08-09T20:23:40.888Z,23.51
2022-08-09T20:26:30.004Z,23.44
2022-08-09T20:29:18.697Z,23.37
2022-08-09T20:32:29.035Z,23.21
2022-08-09T20:34:38.736Z,23.20
2022-08-09T20:37:08.744Z,23.15
2022-08-09T20:40:14.818Z,23.08
2022-08-09T20:42:27.415Z,22.98
2022-08-09T20:45:56.078Z,22.98
2022-08-09T20:47:48.299Z,23.02
2022-08-09T20:50:47.544Z,22.96
2022-08-09T20:53:18.722Z,22.96
2022-08-09T20:56:00.816Z,22.87
2022-08-09T20:58:33.529Z,22.74
2022-08-09T21:01:32.215Z,22.72
2022-08-09T21:05:48.943Z,22.69
2022-08-09T21:06:49.042Z,22.66
2022-08-09T21:09:41.541Z,22.61
2022-08-09T21:14:46.086Z,22.34
2022-08-09T21:18:21.319Z,22.35
2022-08-09T21:20:22.247Z,22.24
2022-08-09T21:22:58.263Z,22.21
2022-08-09T21:25:55.727Z,22.13
2022-08-09T21:28:33.749Z,22.13
2022-08-09T21:31:17.094Z,22.09
2022-08-09T21:33:58.347Z,21.98
2022-08-09T21:36:32.796Z,21.93
2022-08-09T21:39:05.319Z,21.89
2022-08-09T21:42:06.017Z,21.87
2022-08-09T21:44:34.254Z,21.82
2022-08-09T21:47:08.983Z,21.73
2022-08-09T21:49:43.000Z,21.64
2022-08-09T21:52:18.517Z,21.62
2022-08-09T21:55:03.316Z,21.55
2022-08-09T21:57:59.026Z,21.52
2022-08-09T22:00:33.633Z,21.47
2022-08-09T22:03:19.673Z,21.43
2022-08-09T22:05:57.893Z,21.35
2022-08-09T22:08:28.126Z,21.22
2022-08-09T22:11:00.736Z,21.24
2022-08-09T22:13:46.898Z,21.17
2022-08-09T22:16:17.117Z,21.06
2022-08-09T22:18:54.390Z,20.88
2022-08-09T22:21:45.272Z,20.80
2022-08-09T22:24:21.197Z,20.80
2022-08-09T22:26:52.234Z,20.71
2022-08-09T22:29:24.025Z,20.67
2022-08-09T22:32:01.894Z,20.68
2022-08-09T22:34:30.673Z,20.63
2022-08-09T22:37:01.010Z,20.52
2022-08-09T22:39:56.306Z,20.43
2022-08-09T22:42:23.632Z,20.31
2022-08-09T22:48:04.589Z,20.30
2022-08-09T22:48:16.603Z,20.36
2022-08-09T22:50:31.227Z,20.40
2022-08-09T22:52:59.697Z,20.34
2022-08-09T22:56:30.373Z,20.34
2022-08-09T22:58:32.599Z,20.25
2022-08-09T23:01:02.419Z,20.20
2022-08-09T23:04:02.485Z,20.28
2022-08-09T23:06:29.933Z,20.26
2022-08-09T23:09:06.189Z,20.12
2022-08-09T23:11:36.029Z,20.09
2022-08-09T23:14:10.131Z,20.08
2022-08-09T23:16:47.429Z,20.08
2022-08-09T23:19:15.084Z,20.02
2022-08-09T23:21:47.531Z,20.03
2022-08-09T23:24:14.857Z,20.04
2022-08-09T23:26:44.498Z,19.99
2022-08-09T23:29:16.217Z,19.94
2022-08-09T23:31:43.356Z,19.90
2022-08-09T23:34:14.171Z,19.90
2022-08-09T23:36:45.068Z,19.83
2022-08-09T23:39:12.364Z,19.81
2022-08-09T23:41:42.689Z,19.71
2022-08-09T23:44:20.054Z,19.70
2022-08-09T23:46:52.686Z,19.65
2022-08-09T23:49:31.020Z,19.65
2022-08-09T23:52:01.607Z,19.62
2022-08-09T23:54:33.255Z,19.55
2022-08-09T23:57:05.885Z,19.49
2022-08-09T23:59:56.094Z,19.44
